Missouri River (Missouri), Rulo (06813500)

StateMissouriLatestUnknown (43000 cfs)
RiverMissouri RiverRatingObservedEstimated
Updated2020-08-14 5:30 (24 minutes ago)Flood - The river is flooding. Obstacles can be treacherous or deadly. The river should be avoided at this stage for casual trips and definitely for the inexperienced. Trips should be attempted only with protective gear and equipment.Flood(none)(none)
Discharge43000 cfs (median: 40700 cfs)High - The river is high and potentially dangerous, especially for the young and / or inexperienced. Normal stream obstacles are sometimes difficult to navigate. Extended distances can be attempted, but canoe travel may not be advisable.High(none)(none)
Height8.68 feetGood - Conditions are ideal for a canoe or kayak. Boats typically will drag on fewer than one-quarter of riffles, if at all, and portages are unnecessary or rare. Normal float lengths can be attempted without a problem.Good(none)(none)
TrendSteady (falling over 24 hours)Low - River is low but can still be floated. Some riffles are okay but most come with significant dragging and might need a portage. Float lengths should be reduced to accommodate low flow, dragging, and portages.Low(none)(none)
USGSExternal icon USGS Site (External icon Google Maps)Poor - River is too low to float comfortably. Most or all riffles will drag or must be portaged and some obstacles (such as slick shelf rock) cause undue problems. Avoid the river at this stage for casual paddling trips.Poor(none)(none)

Trending Data

Plot Image

Trips for Missouri River (Missouri), Rulo (06813500)

DateStartEndDistanceConditionDischargeHeightFishingDetails

A total of 0 rows are displayed.

Condition Descriptions

Fishing Conditions

Fish Species

Notes

Classic Trip List

The classic River Trips application is still available for use. It is updated with the new system using a data retrofit. It is no longer maintained. The original River Trips application is no longer updated (as of 1 Dec 2016) but can be checked for errors or for the condition of the data before it was converted to the new system.

Gauge Data Table

ObservationHeightDischargeMaximum
Discharge
Minimum
Discharge
Mean
Discharge
P05P10P20P25P50
(Median)
P75P80P90P95
2020-08-14 05:30 8.68 43000 182000 (2011) 28900 (2013) 47400 30300 32300 34600 35300 40700 50400 56600 72800 87500
2020-08-14 04:30 8.68 43000 182000 (2011) 28900 (2013) 47400 30300 32300 34600 35300 40700 50400 56600 72800 87500
2020-08-14 03:30 8.72 43200 182000 (2011) 28900 (2013) 47400 30300 32300 34600 35300 40700 50400 56600 72800 87500
2020-08-14 02:30 8.71 43200 182000 (2011) 28900 (2013) 47400 30300 32300 34600 35300 40700 50400 56600 72800 87500
2020-08-14 01:30 8.72 43200 182000 (2011) 28900 (2013) 47400 30300 32300 34600 35300 40700 50400 56600 72800 87500
2020-08-14 00:30 8.71 43200 182000 (2011) 28900 (2013) 47400 30300 32300 34600 35300 40700 50400 56600 72800 87500
2020-08-13 23:30 8.70 43100 181000 (2011) 29000 (2013) 47500 30600 33000 34300 34800 40400 52000 58200 69400 89000
2020-08-13 22:30 8.71 43200 181000 (2011) 29000 (2013) 47500 30600 33000 34300 34800 40400 52000 58200 69400 89000
2020-08-13 21:30 8.70 43100 181000 (2011) 29000 (2013) 47500 30600 33000 34300 34800 40400 52000 58200 69400 89000
2020-08-13 20:30 8.71 43200 181000 (2011) 29000 (2013) 47500 30600 33000 34300 34800 40400 52000 58200 69400 89000
2020-08-13 19:30 8.68 43000 181000 (2011) 29000 (2013) 47500 30600 33000 34300 34800 40400 52000 58200 69400 89000
2020-08-13 18:30 8.72 43200 181000 (2011) 29000 (2013) 47500 30600 33000 34300 34800 40400 52000 58200 69400 89000
2020-08-13 17:30 8.73 43300 181000 (2011) 29000 (2013) 47500 30600 33000 34300 34800 40400 52000 58200 69400 89000
2020-08-13 16:30 8.75 43400 181000 (2011) 29000 (2013) 47500 30600 33000 34300 34800 40400 52000 58200 69400 89000
2020-08-13 15:30 8.75 43400 181000 (2011) 29000 (2013) 47500 30600 33000 34300 34800 40400 52000 58200 69400 89000
2020-08-13 14:30 8.74 43300 181000 (2011) 29000 (2013) 47500 30600 33000 34300 34800 40400 52000 58200 69400 89000
2020-08-13 13:30 8.75 42900 181000 (2011) 29000 (2013) 47500 30600 33000 34300 34800 40400 52000 58200 69400 89000
2020-08-13 12:30 8.80 43200 181000 (2011) 29000 (2013) 47500 30600 33000 34300 34800 40400 52000 58200 69400 89000
2020-08-13 11:30 8.79 43100 181000 (2011) 29000 (2013) 47500 30600 33000 34300 34800 40400 52000 58200 69400 89000
2020-08-13 10:30 8.79 43100 181000 (2011) 29000 (2013) 47500 30600 33000 34300 34800 40400 52000 58200 69400 89000
2020-08-13 09:30 8.81 43200 181000 (2011) 29000 (2013) 47500 30600 33000 34300 34800 40400 52000 58200 69400 89000
2020-08-13 08:30 8.82 43300 181000 (2011) 29000 (2013) 47500 30600 33000 34300 34800 40400 52000 58200 69400 89000
2020-08-13 07:30 8.84 43400 181000 (2011) 29000 (2013) 47500 30600 33000 34300 34800 40400 52000 58200 69400 89000
2020-08-13 06:30 8.86 43500 181000 (2011) 29000 (2013) 47500 30600 33000 34300 34800 40400 52000 58200 69400 89000
2020-08-13 05:30 8.87 43500 181000 (2011) 29000 (2013) 47500 30600 33000 34300 34800 40400 52000 58200 69400 89000
2020-08-13 04:30 8.87 43500 181000 (2011) 29000 (2013) 47500 30600 33000 34300 34800 40400 52000 58200 69400 89000
2020-08-13 03:30 8.88 43600 181000 (2011) 29000 (2013) 47500 30600 33000 34300 34800 40400 52000 58200 69400 89000
2020-08-13 02:30 8.89 43600 181000 (2011) 29000 (2013) 47500 30600 33000 34300 34800 40400 52000 58200 69400 89000
2020-08-13 01:30 8.87 43500 181000 (2011) 29000 (2013) 47500 30600 33000 34300 34800 40400 52000 58200 69400 89000
2020-08-13 00:30 8.88 43600 181000 (2011) 29000 (2013) 47500 30600 33000 34300 34800 40400 52000 58200 69400 89000

A total of 30 rows are displayed for years 1953 through 2019.